sensor_id;sensor_type;location;lat;lon;timestamp;P1;durP1;ratioP1;P2;durP2;ratioP2
22284;SDS011;11311;52.192;20.900;2023-04-23T00:00:47;31.70;;;20.95;;
22284;SDS011;11311;52.192;20.900;2023-04-23T00:03:18;28.48;;;20.98;;
22284;SDS011;11311;52.192;20.900;2023-04-23T00:05:49;33.13;;;21.17;;
22284;SDS011;11311;52.192;20.900;2023-04-23T00:08:20;32.83;;;22.88;;
22284;SDS011;11311;52.192;20.900;2023-04-23T00:10:50;30.30;;;21.60;;
22284;SDS011;11311;52.192;20.900;2023-04-23T00:13:21;28.77;;;19.98;;
22284;SDS011;11311;52.192;20.900;2023-04-23T00:15:51;32.40;;;20.73;;
22284;SDS011;11311;52.192;20.900;2023-04-23T00:18:20;30.27;;;20.40;;
22284;SDS011;11311;52.192;20.900;2023-04-23T00:20:49;30.65;;;21.73;;
22284;SDS011;11311;52.192;20.900;2023-04-23T00:23:18;30.40;;;19.08;;
22284;SDS011;11311;52.192;20.900;2023-04-23T00:25:47;26.42;;;19.67;;
22284;SDS011;11311;52.192;20.900;2023-04-23T00:28:16;29.60;;;21.80;;
22284;SDS011;11311;52.192;20.900;2023-04-23T00:30:49;27.98;;;17.75;;
22284;SDS011;11311;52.192;20.900;2023-04-23T00:35:47;28.63;;;19.88;;
22284;SDS011;11311;52.192;20.900;2023-04-23T00:38:16;31.48;;;20.88;;
22284;SDS011;11311;52.192;20.900;2023-04-23T00:40:47;28.55;;;19.77;;
22284;SDS011;11311;52.192;20.900;2023-04-23T00:43:16;29.98;;;19.95;;
22284;SDS011;11311;52.192;20.900;2023-04-23T00:45:45;35.88;;;19.48;;
22284;SDS011;11311;52.192;20.900;2023-04-23T00:48:16;28.05;;;19.30;;
22284;SDS011;11311;52.192;20.900;2023-04-23T00:50:45;28.30;;;19.05;;
22284;SDS011;11311;52.192;20.900;2023-04-23T00:53:15;33.28;;;20.55;;
22284;SDS011;11311;52.192;20.900;2023-04-23T00:55:44;36.50;;;20.77;;
22284;SDS011;11311;52.192;20.900;2023-04-23T00:58:14;31.48;;;20.02;;
22284;SDS011;11311;52.192;20.900;2023-04-23T01:00:43;27.60;;;19.17;;
22284;SDS011;11311;52.192;20.900;2023-04-23T01:03:14;28.55;;;18.35;;
22284;SDS011;11311;52.192;20.900;2023-04-23T01:05:48;28.92;;;19.38;;
22284;SDS011;11311;52.192;20.900;2023-04-23T01:08:19;32.00;;;21.05;;
22284;SDS011;11311;52.192;20.900;2023-04-23T01:10:49;31.92;;;21.25;;
22284;SDS011;11311;52.192;20.900;2023-04-23T01:13:18;27.17;;;19.20;;
22284;SDS011;11311;52.192;20.900;2023-04-23T01:15:48;32.65;;;18.90;;
22284;SDS011;11311;52.192;20.900;2023-04-23T01:18:18;28.30;;;20.52;;
22284;SDS011;11311;52.192;20.900;2023-04-23T01:20:48;31.67;;;19.25;;
22284;SDS011;11311;52.192;20.900;2023-04-23T01:23:19;25.42;;;18.33;;
22284;SDS011;11311;52.192;20.900;2023-04-23T01:25:48;29.67;;;19.35;;
22284;SDS011;11311;52.192;20.900;2023-04-23T01:28:17;47.03;;;19.15;;
22284;SDS011;11311;52.192;20.900;2023-04-23T01:30:49;28.63;;;18.90;;
22284;SDS011;11311;52.192;20.900;2023-04-23T01:33:18;25.90;;;18.90;;
22284;SDS011;11311;52.192;20.900;2023-04-23T01:35:48;27.08;;;17.80;;
22284;SDS011;11311;52.192;20.900;2023-04-23T01:38:18;29.02;;;18.55;;
22284;SDS011;11311;52.192;20.900;2023-04-23T01:40:48;28.05;;;18.08;;
22284;SDS011;11311;52.192;20.900;2023-04-23T01:43:17;27.67;;;17.77;;
22284;SDS011;11311;52.192;20.900;2023-04-23T01:45:46;26.35;;;18.27;;
22284;SDS011;11311;52.192;20.900;2023-04-23T01:48:15;27.85;;;19.05;;
22284;SDS011;11311;52.192;20.900;2023-04-23T01:50:44;27.27;;;17.52;;
22284;SDS011;11311;52.192;20.900;2023-04-23T01:53:14;27.77;;;17.27;;
22284;SDS011;11311;52.192;20.900;2023-04-23T01:55:45;30.08;;;16.42;;
22284;SDS011;11311;52.192;20.900;2023-04-23T01:58:15;30.27;;;17.45;;
22284;SDS011;11311;52.192;20.900;2023-04-23T02:00:45;27.25;;;16.63;;
22284;SDS011;11311;52.192;20.900;2023-04-23T02:03:15;24.40;;;18.60;;
22284;SDS011;11311;52.192;20.900;2023-04-23T02:05:49;25.77;;;17.52;;
22284;SDS011;11311;52.192;20.900;2023-04-23T02:08:18;27.70;;;16.50;;
22284;SDS011;11311;52.192;20.900;2023-04-23T02:10:48;27.08;;;18.27;;
22284;SDS011;11311;52.192;20.900;2023-04-23T02:13:17;25.17;;;17.95;;
22284;SDS011;11311;52.192;20.900;2023-04-23T02:15:46;29.42;;;18.70;;
22284;SDS011;11311;52.192;20.900;2023-04-23T02:18:16;25.80;;;17.23;;
22284;SDS011;11311;52.192;20.900;2023-04-23T02:20:44;24.05;;;16.80;;
22284;SDS011;11311;52.192;20.900;2023-04-23T02:23:14;25.20;;;17.52;;
22284;SDS011;11311;52.192;20.900;2023-04-23T02:25:42;26.55;;;16.08;;
22284;SDS011;11311;52.192;20.900;2023-04-23T02:28:13;24.37;;;17.73;;
22284;SDS011;11311;52.192;20.900;2023-04-23T02:30:42;30.80;;;17.83;;
22284;SDS011;11311;52.192;20.900;2023-04-23T02:33:14;25.27;;;18.08;;
22284;SDS011;11311;52.192;20.900;2023-04-23T02:35:43;24.90;;;16.88;;
22284;SDS011;11311;52.192;20.900;2023-04-23T02:38:12;25.88;;;17.10;;
22284;SDS011;11311;52.192;20.900;2023-04-23T02:40:40;26.55;;;17.13;;
22284;SDS011;11311;52.192;20.900;2023-04-23T02:43:09;24.58;;;16.85;;
22284;SDS011;11311;52.192;20.900;2023-04-23T02:45:40;26.92;;;17.10;;
22284;SDS011;11311;52.192;20.900;2023-04-23T02:48:10;23.52;;;17.85;;
22284;SDS011;11311;52.192;20.900;2023-04-23T02:50:40;26.80;;;17.80;;
22284;SDS011;11311;52.192;20.900;2023-04-23T02:53:09;23.27;;;16.85;;
22284;SDS011;11311;52.192;20.900;2023-04-23T02:55:37;23.17;;;16.08;;
22284;SDS011;11311;52.192;20.900;2023-04-23T02:58:06;25.58;;;17.20;;
22284;SDS011;11311;52.192;20.900;2023-04-23T03:00:37;23.35;;;16.55;;
22284;SDS011;11311;52.192;20.900;2023-04-23T03:03:07;27.38;;;17.48;;
22284;SDS011;11311;52.192;20.900;2023-04-23T03:05:38;25.77;;;16.77;;
22284;SDS011;11311;52.192;20.900;2023-04-23T03:08:07;24.73;;;15.88;;
22284;SDS011;11311;52.192;20.900;2023-04-23T03:10:36;24.65;;;15.40;;
22284;SDS011;11311;52.192;20.900;2023-04-23T03:13:05;24.98;;;17.58;;
22284;SDS011;11311;52.192;20.900;2023-04-23T03:15:34;27.02;;;16.63;;
22284;SDS011;11311;52.192;20.900;2023-04-23T03:18:03;25.83;;;17.48;;
22284;SDS011;11311;52.192;20.900;2023-04-23T03:20:37;25.23;;;16.42;;
22284;SDS011;11311;52.192;20.900;2023-04-23T03:25:34;24.92;;;16.10;;
22284;SDS011;11311;52.192;20.900;2023-04-23T03:28:03;26.63;;;17.58;;
22284;SDS011;11311;52.192;20.900;2023-04-23T03:30:32;24.83;;;16.33;;
22284;SDS011;11311;52.192;20.900;2023-04-23T03:33:01;23.57;;;16.40;;
22284;SDS011;11311;52.192;20.900;2023-04-23T03:35:31;26.27;;;16.65;;
22284;SDS011;11311;52.192;20.900;2023-04-23T03:38:04;26.95;;;16.85;;
22284;SDS011;11311;52.192;20.900;2023-04-23T03:40:34;23.27;;;16.67;;
22284;SDS011;11311;52.192;20.900;2023-04-23T03:43:06;24.83;;;15.75;;
22284;SDS011;11311;52.192;20.900;2023-04-23T03:45:55;18.85;;;13.55;;
22284;SDS011;11311;52.192;20.900;2023-04-23T03:48:25;25.83;;;18.00;;
22284;SDS011;11311;52.192;20.900;2023-04-23T03:50:54;24.10;;;17.20;;
22284;SDS011;11311;52.192;20.900;2023-04-23T03:53:39;28.05;;;16.75;;
22284;SDS011;11311;52.192;20.900;2023-04-23T03:56:26;24.95;;;16.63;;
22284;SDS011;11311;52.192;20.900;2023-04-23T03:59:17;20.92;;;15.05;;
22284;SDS011;11311;52.192;20.900;2023-04-23T04:01:49;29.05;;;16.65;;
22284;SDS011;11311;52.192;20.900;2023-04-23T04:09:20;26.33;;;15.88;;
22284;SDS011;11311;52.192;20.900;2023-04-23T04:11:49;25.92;;;14.88;;
22284;SDS011;11311;52.192;20.900;2023-04-23T04:14:19;27.13;;;15.70;;
22284;SDS011;11311;52.192;20.900;2023-04-23T04:16:48;28.67;;;16.15;;
22284;SDS011;11311;52.192;20.900;2023-04-23T04:19:17;27.63;;;15.38;;
22284;SDS011;11311;52.192;20.900;2023-04-23T04:21:46;22.80;;;15.43;;
22284;SDS011;11311;52.192;20.900;2023-04-23T04:24:15;27.73;;;14.73;;
22284;SDS011;11311;52.192;20.900;2023-04-23T04:26:45;23.88;;;16.23;;
22284;SDS011;11311;52.192;20.900;2023-04-23T04:31:43;25.63;;;15.82;;
22284;SDS011;11311;52.192;20.900;2023-04-23T04:34:12;23.55;;;13.73;;
22284;SDS011;11311;52.192;20.900;2023-04-23T04:36:41;25.02;;;14.63;;
22284;SDS011;11311;52.192;20.900;2023-04-23T04:39:11;23.75;;;14.50;;
22284;SDS011;11311;52.192;20.900;2023-04-23T04:41:40;22.33;;;15.85;;
22284;SDS011;11311;52.192;20.900;2023-04-23T04:44:11;21.13;;;15.07;;
22284;SDS011;11311;52.192;20.900;2023-04-23T04:46:40;22.83;;;15.07;;
22284;SDS011;11311;52.192;20.900;2023-04-23T04:49:09;19.20;;;15.23;;
22284;SDS011;11311;52.192;20.900;2023-04-23T04:51:39;22.00;;;15.52;;
22284;SDS011;11311;52.192;20.900;2023-04-23T04:54:08;23.70;;;14.63;;
22284;SDS011;11311;52.192;20.900;2023-04-23T04:56:37;32.22;;;15.07;;
22284;SDS011;11311;52.192;20.900;2023-04-23T04:59:06;20.88;;;14.43;;
22284;SDS011;11311;52.192;20.900;2023-04-23T05:01:36;22.33;;;13.77;;
22284;SDS011;11311;52.192;20.900;2023-04-23T05:04:06;24.80;;;14.85;;
22284;SDS011;11311;52.192;20.900;2023-04-23T05:06:35;23.15;;;16.55;;
22284;SDS011;11311;52.192;20.900;2023-04-23T05:09:04;26.90;;;16.27;;
22284;SDS011;11311;52.192;20.900;2023-04-23T05:11:34;21.13;;;15.73;;
22284;SDS011;11311;52.192;20.900;2023-04-23T05:14:03;25.13;;;16.33;;
22284;SDS011;11311;52.192;20.900;2023-04-23T05:16:32;26.33;;;14.77;;
22284;SDS011;11311;52.192;20.900;2023-04-23T05:19:03;23.58;;;16.15;;
22284;SDS011;11311;52.192;20.900;2023-04-23T05:21:32;28.17;;;17.40;;
22284;SDS011;11311;52.192;20.900;2023-04-23T05:24:01;30.00;;;16.25;;
22284;SDS011;11311;52.192;20.900;2023-04-23T05:29:00;23.38;;;16.13;;
22284;SDS011;11311;52.192;20.900;2023-04-23T05:31:29;28.20;;;14.95;;
22284;SDS011;11311;52.192;20.900;2023-04-23T05:33:58;23.38;;;16.10;;
22284;SDS011;11311;52.192;20.900;2023-04-23T05:36:29;21.02;;;15.57;;
22284;SDS011;11311;52.192;20.900;2023-04-23T05:38:58;22.50;;;14.38;;
22284;SDS011;11311;52.192;20.900;2023-04-23T05:41:27;25.13;;;15.93;;
22284;SDS011;11311;52.192;20.900;2023-04-23T05:43:56;23.65;;;15.45;;
22284;SDS011;11311;52.192;20.900;2023-04-23T05:46:25;22.15;;;14.40;;
22284;SDS011;11311;52.192;20.900;2023-04-23T05:48:54;21.60;;;15.57;;
22284;SDS011;11311;52.192;20.900;2023-04-23T05:51:22;19.95;;;16.10;;
22284;SDS011;11311;52.192;20.900;2023-04-23T05:53:53;18.75;;;14.77;;
22284;SDS011;11311;52.192;20.900;2023-04-23T05:58:50;23.90;;;14.80;;
22284;SDS011;11311;52.192;20.900;2023-04-23T06:01:19;22.50;;;12.55;;
22284;SDS011;11311;52.192;20.900;2023-04-23T06:03:48;18.40;;;14.38;;
22284;SDS011;11311;52.192;20.900;2023-04-23T06:06:17;21.80;;;14.40;;
22284;SDS011;11311;52.192;20.900;2023-04-23T06:08:46;21.85;;;14.10;;
22284;SDS011;11311;52.192;20.900;2023-04-23T06:13:47;20.92;;;13.73;;
22284;SDS011;11311;52.192;20.900;2023-04-23T06:16:15;16.98;;;12.38;;
22284;SDS011;11311;52.192;20.900;2023-04-23T06:18:45;21.05;;;13.38;;
22284;SDS011;11311;52.192;20.900;2023-04-23T06:21:14;16.08;;;12.02;;
22284;SDS011;11311;52.192;20.900;2023-04-23T06:23:45;18.38;;;12.60;;
22284;SDS011;11311;52.192;20.900;2023-04-23T06:26:14;19.65;;;12.73;;
22284;SDS011;11311;52.192;20.900;2023-04-23T06:28:45;22.45;;;11.32;;
22284;SDS011;11311;52.192;20.900;2023-04-23T06:31:42;18.63;;;11.75;;
22284;SDS011;11311;52.192;20.900;2023-04-23T06:34:11;19.52;;;10.50;;
22284;SDS011;11311;52.192;20.900;2023-04-23T06:36:40;16.70;;;11.80;;
22284;SDS011;11311;52.192;20.900;2023-04-23T06:39:10;14.88;;;10.13;;
22284;SDS011;11311;52.192;20.900;2023-04-23T06:41:39;14.73;;;8.55;;
22284;SDS011;11311;52.192;20.900;2023-04-23T06:44:18;17.45;;;8.50;;
22284;SDS011;11311;52.192;20.900;2023-04-23T06:46:50;11.88;;;9.85;;
22284;SDS011;11311;52.192;20.900;2023-04-23T06:49:19;14.38;;;9.52;;
22284;SDS011;11311;52.192;20.900;2023-04-23T06:51:48;14.40;;;10.63;;
22284;SDS011;11311;52.192;20.900;2023-04-23T06:54:17;13.05;;;10.23;;
22284;SDS011;11311;52.192;20.900;2023-04-23T06:56:47;16.20;;;8.80;;
22284;SDS011;11311;52.192;20.900;2023-04-23T06:59:18;14.07;;;9.80;;
22284;SDS011;11311;52.192;20.900;2023-04-23T07:01:50;12.05;;;8.68;;
22284;SDS011;11311;52.192;20.900;2023-04-23T07:04:19;12.00;;;8.73;;
22284;SDS011;11311;52.192;20.900;2023-04-23T07:06:48;11.35;;;7.47;;
22284;SDS011;11311;52.192;20.900;2023-04-23T07:09:17;14.68;;;8.38;;
22284;SDS011;11311;52.192;20.900;2023-04-23T07:11:46;11.23;;;7.47;;
22284;SDS011;11311;52.192;20.900;2023-04-23T07:14:15;15.40;;;7.65;;
22284;SDS011;11311;52.192;20.900;2023-04-23T07:16:45;11.10;;;7.85;;
22284;SDS011;11311;52.192;20.900;2023-04-23T07:21:43;11.30;;;6.38;;
22284;SDS011;11311;52.192;20.900;2023-04-23T07:24:11;8.23;;;6.60;;
22284;SDS011;11311;52.192;20.900;2023-04-23T07:26:40;14.32;;;6.80;;
22284;SDS011;11311;52.192;20.900;2023-04-23T07:29:09;8.30;;;4.57;;
22284;SDS011;11311;52.192;20.900;2023-04-23T07:31:39;6.72;;;5.95;;
22284;SDS011;11311;52.192;20.900;2023-04-23T07:34:10;9.20;;;6.72;;
22284;SDS011;11311;52.192;20.900;2023-04-23T07:36:39;8.85;;;5.82;;
22284;SDS011;11311;52.192;20.900;2023-04-23T07:39:08;9.63;;;5.40;;
22284;SDS011;11311;52.192;20.900;2023-04-23T07:41:37;10.32;;;6.82;;
22284;SDS011;11311;52.192;20.900;2023-04-23T07:44:06;7.75;;;5.20;;
22284;SDS011;11311;52.192;20.900;2023-04-23T07:46:35;12.70;;;6.45;;
22284;SDS011;11311;52.192;20.900;2023-04-23T07:49:03;8.20;;;5.35;;
22284;SDS011;11311;52.192;20.900;2023-04-23T07:51:34;12.80;;;6.25;;
22284;SDS011;11311;52.192;20.900;2023-04-23T07:54:03;11.48;;;5.82;;
22284;SDS011;11311;52.192;20.900;2023-04-23T07:56:33;11.15;;;5.10;;
22284;SDS011;11311;52.192;20.900;2023-04-23T07:59:02;9.07;;;5.15;;
22284;SDS011;11311;52.192;20.900;2023-04-23T08:01:31;6.38;;;4.45;;
22284;SDS011;11311;52.192;20.900;2023-04-23T08:04:00;10.03;;;5.63;;
22284;SDS011;11311;52.192;20.900;2023-04-23T08:06:30;8.10;;;5.18;;
22284;SDS011;11311;52.192;20.900;2023-04-23T08:09:03;6.72;;;4.45;;
22284;SDS011;11311;52.192;20.900;2023-04-23T08:11:33;9.00;;;4.30;;
22284;SDS011;11311;52.192;20.900;2023-04-23T08:14:02;7.85;;;4.90;;
22284;SDS011;11311;52.192;20.900;2023-04-23T08:16:30;7.10;;;4.53;;
22284;SDS011;11311;52.192;20.900;2023-04-23T08:19:02;6.35;;;4.28;;
22284;SDS011;11311;52.192;20.900;2023-04-23T08:21:34;8.75;;;4.90;;
22284;SDS011;11311;52.192;20.900;2023-04-23T08:24:05;8.07;;;4.10;;
22284;SDS011;11311;52.192;20.900;2023-04-23T08:26:35;8.05;;;4.60;;
22284;SDS011;11311;52.192;20.900;2023-04-23T08:29:04;6.20;;;3.58;;
22284;SDS011;11311;52.192;20.900;2023-04-23T08:31:35;8.20;;;3.90;;
22284;SDS011;11311;52.192;20.900;2023-04-23T08:34:05;11.52;;;4.78;;
22284;SDS011;11311;52.192;20.900;2023-04-23T08:36:34;4.88;;;4.03;;
22284;SDS011;11311;52.192;20.900;2023-04-23T08:39:05;4.50;;;3.15;;
22284;SDS011;11311;52.192;20.900;2023-04-23T08:41:37;4.10;;;3.47;;
22284;SDS011;11311;52.192;20.900;2023-04-23T08:44:11;9.50;;;5.18;;
22284;SDS011;11311;52.192;20.900;2023-04-23T08:46:41;6.25;;;3.45;;
22284;SDS011;11311;52.192;20.900;2023-04-23T08:51:42;4.72;;;3.88;;
22284;SDS011;11311;52.192;20.900;2023-04-23T08:54:17;5.20;;;3.80;;
22284;SDS011;11311;52.192;20.900;2023-04-23T08:56:49;13.15;;;4.88;;
22284;SDS011;11311;52.192;20.900;2023-04-23T08:59:19;5.07;;;2.85;;
22284;SDS011;11311;52.192;20.900;2023-04-23T09:01:48;7.60;;;4.43;;
22284;SDS011;11311;52.192;20.900;2023-04-23T09:04:18;5.25;;;3.95;;
22284;SDS011;11311;52.192;20.900;2023-04-23T09:06:47;6.80;;;4.00;;
22284;SDS011;11311;52.192;20.900;2023-04-23T09:09:18;20.80;;;5.28;;
22284;SDS011;11311;52.192;20.900;2023-04-23T09:11:49;5.10;;;3.42;;
22284;SDS011;11311;52.192;20.900;2023-04-23T09:14:21;4.95;;;3.70;;
22284;SDS011;11311;52.192;20.900;2023-04-23T09:16:51;24.20;;;4.05;;
22284;SDS011;11311;52.192;20.900;2023-04-23T09:19:20;9.70;;;4.40;;
22284;SDS011;11311;52.192;20.900;2023-04-23T09:21:51;5.82;;;4.38;;
22284;SDS011;11311;52.192;20.900;2023-04-23T09:24:22;4.40;;;3.55;;
22284;SDS011;11311;52.192;20.900;2023-04-23T09:26:51;3.92;;;3.33;;
22284;SDS011;11311;52.192;20.900;2023-04-23T09:29:21;5.60;;;3.63;;
22284;SDS011;11311;52.192;20.900;2023-04-23T09:31:50;5.10;;;3.70;;
22284;SDS011;11311;52.192;20.900;2023-04-23T09:34:21;9.70;;;2.65;;
22284;SDS011;11311;52.192;20.900;2023-04-23T09:36:51;6.72;;;3.70;;
22284;SDS011;11311;52.192;20.900;2023-04-23T09:39:22;3.80;;;2.92;;
22284;SDS011;11311;52.192;20.900;2023-04-23T09:41:52;7.05;;;3.20;;
22284;SDS011;11311;52.192;20.900;2023-04-23T09:44:21;4.63;;;3.67;;
22284;SDS011;11311;52.192;20.900;2023-04-23T09:46:49;5.00;;;3.55;;
22284;SDS011;11311;52.192;20.900;2023-04-23T09:49:18;6.17;;;3.57;;
22284;SDS011;11311;52.192;20.900;2023-04-23T09:51:48;4.30;;;2.88;;
22284;SDS011;11311;52.192;20.900;2023-04-23T09:54:18;5.88;;;3.50;;
22284;SDS011;11311;52.192;20.900;2023-04-23T09:56:51;4.75;;;3.55;;
22284;SDS011;11311;52.192;20.900;2023-04-23T09:59:24;5.90;;;3.38;;
22284;SDS011;11311;52.192;20.900;2023-04-23T10:02:11;5.10;;;2.85;;
22284;SDS011;11311;52.192;20.900;2023-04-23T10:04:40;3.67;;;3.10;;
22284;SDS011;11311;52.192;20.900;2023-04-23T10:07:10;5.63;;;2.95;;
22284;SDS011;11311;52.192;20.900;2023-04-23T10:09:43;5.93;;;3.55;;
22284;SDS011;11311;52.192;20.900;2023-04-23T10:12:14;6.30;;;3.20;;
22284;SDS011;11311;52.192;20.900;2023-04-23T10:14:48;9.10;;;3.50;;
22284;SDS011;11311;52.192;20.900;2023-04-23T10:17:19;5.97;;;3.40;;
22284;SDS011;11311;52.192;20.900;2023-04-23T10:19:48;3.17;;;2.40;;
22284;SDS011;11311;52.192;20.900;2023-04-23T10:22:18;3.95;;;2.75;;
22284;SDS011;11311;52.192;20.900;2023-04-23T10:24:49;5.63;;;2.67;;
22284;SDS011;11311;52.192;20.900;2023-04-23T10:27:25;4.78;;;3.15;;
22284;SDS011;11311;52.192;20.900;2023-04-23T10:30:06;4.93;;;3.25;;
22284;SDS011;11311;52.192;20.900;2023-04-23T10:32:37;3.58;;;2.58;;
22284;SDS011;11311;52.192;20.900;2023-04-23T10:35:06;3.50;;;2.70;;
22284;SDS011;11311;52.192;20.900;2023-04-23T10:37:36;6.07;;;2.97;;
22284;SDS011;11311;52.192;20.900;2023-04-23T10:40:06;4.00;;;3.40;;
22284;SDS011;11311;52.192;20.900;2023-04-23T10:42:39;4.30;;;2.90;;
22284;SDS011;11311;52.192;20.900;2023-04-23T10:45:12;4.57;;;3.35;;
22284;SDS011;11311;52.192;20.900;2023-04-23T10:47:51;6.97;;;3.05;;
22284;SDS011;11311;52.192;20.900;2023-04-23T10:50:23;4.38;;;3.42;;
22284;SDS011;11311;52.192;20.900;2023-04-23T10:52:53;5.95;;;3.28;;
22284;SDS011;11311;52.192;20.900;2023-04-23T10:55:25;4.10;;;3.05;;
22284;SDS011;11311;52.192;20.900;2023-04-23T10:57:57;4.43;;;2.60;;
22284;SDS011;11311;52.192;20.900;2023-04-23T11:00:29;4.72;;;3.15;;
22284;SDS011;11311;52.192;20.900;2023-04-23T11:03:31;10.32;;;3.30;;
22284;SDS011;11311;52.192;20.900;2023-04-23T11:06:11;3.83;;;3.08;;
22284;SDS011;11311;52.192;20.900;2023-04-23T11:08:49;3.45;;;3.10;;
22284;SDS011;11311;52.192;20.900;2023-04-23T11:11:23;7.57;;;2.97;;
22284;SDS011;11311;52.192;20.900;2023-04-23T11:13:56;3.63;;;2.85;;
22284;SDS011;11311;52.192;20.900;2023-04-23T11:16:26;4.63;;;2.67;;
22284;SDS011;11311;52.192;20.900;2023-04-23T11:18:59;5.83;;;2.63;;
22284;SDS011;11311;52.192;20.900;2023-04-23T11:24:26;5.18;;;2.85;;
22284;SDS011;11311;52.192;20.900;2023-04-23T11:26:56;5.00;;;3.65;;
22284;SDS011;11311;52.192;20.900;2023-04-23T11:29:27;3.35;;;2.90;;
22284;SDS011;11311;52.192;20.900;2023-04-23T11:31:56;5.88;;;3.70;;
22284;SDS011;11311;52.192;20.900;2023-04-23T11:34:29;3.50;;;3.20;;
22284;SDS011;11311;52.192;20.900;2023-04-23T11:37:00;4.32;;;3.08;;
22284;SDS011;11311;52.192;20.900;2023-04-23T11:39:31;3.63;;;2.72;;
22284;SDS011;11311;52.192;20.900;2023-04-23T11:42:00;3.42;;;3.13;;
22284;SDS011;11311;52.192;20.900;2023-04-23T11:44:30;10.57;;;3.38;;
22284;SDS011;11311;52.192;20.900;2023-04-23T11:47:00;3.08;;;2.78;;
22284;SDS011;11311;52.192;20.900;2023-04-23T11:49:29;5.30;;;3.00;;
22284;SDS011;11311;52.192;20.900;2023-04-23T11:51:58;8.77;;;2.67;;
22284;SDS011;11311;52.192;20.900;2023-04-23T11:54:28;4.35;;;2.78;;
22284;SDS011;11311;52.192;20.900;2023-04-23T11:56:57;5.87;;;3.13;;
22284;SDS011;11311;52.192;20.900;2023-04-23T11:59:26;3.00;;;2.67;;
22284;SDS011;11311;52.192;20.900;2023-04-23T12:01:57;5.43;;;3.03;;
22284;SDS011;11311;52.192;20.900;2023-04-23T12:04:29;3.42;;;2.85;;
22284;SDS011;11311;52.192;20.900;2023-04-23T12:09:36;6.20;;;3.05;;
22284;SDS011;11311;52.192;20.900;2023-04-23T12:12:05;6.82;;;2.78;;
22284;SDS011;11311;52.192;20.900;2023-04-23T12:17:09;5.03;;;2.70;;
22284;SDS011;11311;52.192;20.900;2023-04-23T12:19:38;4.88;;;3.22;;
22284;SDS011;11311;52.192;20.900;2023-04-23T12:22:12;3.72;;;2.67;;
22284;SDS011;11311;52.192;20.900;2023-04-23T12:24:44;3.85;;;3.00;;
22284;SDS011;11311;52.192;20.900;2023-04-23T12:27:17;7.15;;;3.13;;
22284;SDS011;11311;52.192;20.900;2023-04-23T12:29:48;4.57;;;2.90;;
22284;SDS011;11311;52.192;20.900;2023-04-23T12:32:19;3.65;;;3.08;;
22284;SDS011;11311;52.192;20.900;2023-04-23T12:34:51;3.72;;;3.05;;
22284;SDS011;11311;52.192;20.900;2023-04-23T12:37:22;3.03;;;2.70;;
22284;SDS011;11311;52.192;20.900;2023-04-23T12:39:53;4.97;;;3.13;;
22284;SDS011;11311;52.192;20.900;2023-04-23T12:42:24;6.15;;;3.22;;
22284;SDS011;11311;52.192;20.900;2023-04-23T12:44:54;4.90;;;3.05;;
22284;SDS011;11311;52.192;20.900;2023-04-23T12:47:35;4.75;;;3.03;;
22284;SDS011;11311;52.192;20.900;2023-04-23T12:50:05;4.68;;;2.53;;
22284;SDS011;11311;52.192;20.900;2023-04-23T12:52:34;3.53;;;2.90;;
22284;SDS011;11311;52.192;20.900;2023-04-23T12:55:05;3.20;;;2.90;;
22284;SDS011;11311;52.192;20.900;2023-04-23T12:57:34;4.35;;;3.30;;
22284;SDS011;11311;52.192;20.900;2023-04-23T13:00:03;3.42;;;2.65;;
22284;SDS011;11311;52.192;20.900;2023-04-23T13:02:36;3.22;;;2.67;;
22284;SDS011;11311;52.192;20.900;2023-04-23T13:05:06;5.72;;;3.35;;
22284;SDS011;11311;52.192;20.900;2023-04-23T13:07:35;6.90;;;3.55;;
22284;SDS011;11311;52.192;20.900;2023-04-23T13:10:04;4.78;;;2.95;;
22284;SDS011;11311;52.192;20.900;2023-04-23T13:12:34;4.78;;;3.05;;
22284;SDS011;11311;52.192;20.900;2023-04-23T13:15:03;4.45;;;3.00;;
22284;SDS011;11311;52.192;20.900;2023-04-23T13:17:33;5.97;;;3.10;;
22284;SDS011;11311;52.192;20.900;2023-04-23T13:20:05;4.32;;;3.33;;
22284;SDS011;11311;52.192;20.900;2023-04-23T13:22:34;4.65;;;3.20;;
22284;SDS011;11311;52.192;20.900;2023-04-23T13:25:05;3.47;;;2.33;;
22284;SDS011;11311;52.192;20.900;2023-04-23T13:27:35;11.88;;;3.13;;
22284;SDS011;11311;52.192;20.900;2023-04-23T13:30:04;3.70;;;2.88;;
22284;SDS011;11311;52.192;20.900;2023-04-23T13:32:34;4.82;;;3.40;;
22284;SDS011;11311;52.192;20.900;2023-04-23T13:35:05;8.50;;;3.83;;
22284;SDS011;11311;52.192;20.900;2023-04-23T13:37:34;3.40;;;3.10;;
22284;SDS011;11311;52.192;20.900;2023-04-23T13:40:03;9.25;;;3.58;;
22284;SDS011;11311;52.192;20.900;2023-04-23T13:42:33;5.85;;;2.60;;
22284;SDS011;11311;52.192;20.900;2023-04-23T13:45:02;5.15;;;3.45;;
22284;SDS011;11311;52.192;20.900;2023-04-23T13:50:01;7.15;;;3.13;;
22284;SDS011;11311;52.192;20.900;2023-04-23T13:52:34;13.00;;;3.60;;
22284;SDS011;11311;52.192;20.900;2023-04-23T13:55:03;7.00;;;3.22;;
22284;SDS011;11311;52.192;20.900;2023-04-23T13:57:33;9.15;;;3.20;;
22284;SDS011;11311;52.192;20.900;2023-04-23T14:00:07;6.10;;;3.53;;
22284;SDS011;11311;52.192;20.900;2023-04-23T14:02:38;4.05;;;3.55;;
22284;SDS011;11311;52.192;20.900;2023-04-23T14:05:07;5.68;;;3.65;;
22284;SDS011;11311;52.192;20.900;2023-04-23T14:07:38;4.90;;;3.13;;
22284;SDS011;11311;52.192;20.900;2023-04-23T14:10:08;3.17;;;2.78;;
22284;SDS011;11311;52.192;20.900;2023-04-23T14:12:37;6.70;;;3.25;;
22284;SDS011;11311;52.192;20.900;2023-04-23T14:15:07;3.80;;;3.10;;
22284;SDS011;11311;52.192;20.900;2023-04-23T14:17:36;7.03;;;3.40;;
22284;SDS011;11311;52.192;20.900;2023-04-23T14:22:35;5.85;;;3.25;;
22284;SDS011;11311;52.192;20.900;2023-04-23T14:25:08;5.38;;;3.40;;
22284;SDS011;11311;52.192;20.900;2023-04-23T14:27:43;4.63;;;3.15;;
22284;SDS011;11311;52.192;20.900;2023-04-23T14:30:14;5.05;;;3.95;;
22284;SDS011;11311;52.192;20.900;2023-04-23T14:32:44;4.63;;;3.25;;
22284;SDS011;11311;52.192;20.900;2023-04-23T14:35:16;6.68;;;3.75;;
22284;SDS011;11311;52.192;20.900;2023-04-23T14:38:01;8.13;;;3.38;;
22284;SDS011;11311;52.192;20.900;2023-04-23T14:40:32;3.10;;;2.80;;
22284;SDS011;11311;52.192;20.900;2023-04-23T14:43:00;11.07;;;3.40;;
22284;SDS011;11311;52.192;20.900;2023-04-23T14:45:32;6.43;;;3.50;;
22284;SDS011;11311;52.192;20.900;2023-04-23T14:48:02;8.43;;;3.35;;
22284;SDS011;11311;52.192;20.900;2023-04-23T14:50:31;5.55;;;3.08;;
22284;SDS011;11311;52.192;20.900;2023-04-23T14:53:00;5.63;;;3.75;;
22284;SDS011;11311;52.192;20.900;2023-04-23T14:55:30;4.95;;;3.65;;
22284;SDS011;11311;52.192;20.900;2023-04-23T14:58:00;4.80;;;3.35;;
22284;SDS011;11311;52.192;20.900;2023-04-23T15:00:29;3.28;;;2.90;;
22284;SDS011;11311;52.192;20.900;2023-04-23T15:02:58;5.32;;;3.63;;
22284;SDS011;11311;52.192;20.900;2023-04-23T15:05:30;6.32;;;3.60;;
22284;SDS011;11311;52.192;20.900;2023-04-23T15:07:59;6.65;;;3.65;;
22284;SDS011;11311;52.192;20.900;2023-04-23T15:10:27;4.47;;;3.20;;
22284;SDS011;11311;52.192;20.900;2023-04-23T15:13:02;4.97;;;2.92;;
22284;SDS011;11311;52.192;20.900;2023-04-23T15:15:36;5.15;;;3.70;;
22284;SDS011;11311;52.192;20.900;2023-04-23T15:18:12;5.10;;;3.25;;